Time;durP1;ratioP1;P1;durP2;ratioP2;P2;SDS_P1;SDS_P2;PMS_P1;PMS_P2;Temp;Humidity;BMP_temperature;BMP_pressure;BME280_temperature;BME280_humidity;BME280_pressure;Samples;Min_cycle;Max_cycle;Signal;HPM_P1;HPM_P2
2021/10/09 00:01:35;;;;;;;1.17;0.17;;;;;;;;;;5055186;28;20048;-67
2021/10/09 00:04:00;;;;;;;0.20;0.10;;;;;;;;;;5055406;28;20075;-67
2021/10/09 00:06:26;;;;;;;1.13;0.20;;;;;;;;;;5055329;28;20253;-67
2021/10/09 00:08:51;;;;;;;1.45;0.10;;;;;;;;;;5055288;28;20021;-67
2021/10/09 00:11:33;;;;;;;0.32;0.10;;;;;;;;;;5054852;28;20025;-67
2021/10/09 00:13:59;;;;;;;0.40;0.10;;;;;;;;;;5055334;28;20463;-68
2021/10/09 00:16:24;;;;;;;0.57;0.10;;;;;;;;;;5055089;28;20139;-66
2021/10/09 00:18:50;;;;;;;0.10;0.10;;;;;;;;;;5055184;28;20067;-66
2021/10/09 00:21:17;;;;;;;2.08;0.30;;;;;;;;;;5053751;28;20504;-68
2021/10/09 00:23:42;;;;;;;0.50;0.22;;;;;;;;;;5053767;28;20387;-67
2021/10/09 00:26:07;;;;;;;0.10;0.10;;;;;;;;;;5055013;28;20092;-67
2021/10/09 00:28:32;;;;;;;0.25;0.20;;;;;;;;;;5054825;28;20104;-68
2021/10/09 00:30:58;;;;;;;0.20;0.10;;;;;;;;;;5055020;28;20064;-67
2021/10/09 00:33:23;;;;;;;0.57;0.50;;;;;;;;;;5054271;28;20094;-67
2021/10/09 00:35:48;;;;;;;0.57;0.30;;;;;;;;;;5054859;28;20491;-68
2021/10/09 00:38:13;;;;;;;0.30;0.20;;;;;;;;;;5054339;28;20071;-68
2021/10/09 00:40:39;;;;;;;0.20;0.20;;;;;;;;;;5054760;28;20019;-67
2021/10/09 00:43:04;;;;;;;0.60;0.20;;;;;;;;;;5054441;28;20025;-68
2021/10/09 00:45:29;;;;;;;0.68;0.20;;;;;;;;;;5054540;28;20025;-67
2021/10/09 00:47:54;;;;;;;1.00;0.22;;;;;;;;;;5054631;28;20025;-67
2021/10/09 00:50:20;;;;;;;0.20;0.20;;;;;;;;;;5053184;28;20474;-68
2021/10/09 00:52:45;;;;;;;1.88;0.52;;;;;;;;;;5054507;28;20036;-67
2021/10/09 00:55:11;;;;;;;0.40;0.17;;;;;;;;;;5054193;28;20025;-67
2021/10/09 00:57:37;;;;;;;0.17;0.17;;;;;;;;;;5054340;28;20078;-67
2021/10/09 01:00:03;;;;;;;0.30;0.20;;;;;;;;;;5054552;28;20025;-67
2021/10/09 01:02:29;;;;;;;0.50;0.30;;;;;;;;;;5052615;28;20361;-67
2021/10/09 01:04:55;;;;;;;0.10;0.10;;;;;;;;;;5053803;28;20139;-68
2021/10/09 01:07:20;;;;;;;0.30;0.10;;;;;;;;;;5054094;28;20024;-68
2021/10/09 01:09:48;;;;;;;0.28;0.25;;;;;;;;;;5054168;28;20017;-67
2021/10/09 01:12:14;;;;;;;2.33;0.20;;;;;;;;;;5054005;28;20098;-68
2021/10/09 01:14:39;;;;;;;0.20;0.10;;;;;;;;;;5054040;28;20017;-67
2021/10/09 01:17:05;;;;;;;0.30;0.20;;;;;;;;;;5053924;28;20352;-67
2021/10/09 01:19:30;;;;;;;1.08;0.30;;;;;;;;;;5053922;28;20112;-67
2021/10/09 01:21:55;;;;;;;0.22;0.20;;;;;;;;;;5053906;28;20029;-67
2021/10/09 01:24:20;;;;;;;0.20;0.10;;;;;;;;;;5053925;28;20025;-68
2021/10/09 01:26:46;;;;;;;0.70;0.15;;;;;;;;;;5053856;28;20383;-67
2021/10/09 01:29:12;;;;;;;0.90;0.50;;;;;;;;;;5053665;28;20528;-67
2021/10/09 01:31:38;;;;;;;0.52;0.10;;;;;;;;;;5053964;28;20021;-67
2021/10/09 01:34:03;;;;;;;0.22;0.08;;;;;;;;;;5053678;28;20060;-67
2021/10/09 01:36:29;;;;;;;0.25;0.20;;;;;;;;;;5053270;28;20031;-67
2021/10/09 01:38:55;;;;;;;0.45;0.32;;;;;;;;;;5053491;28;20472;-67
2021/10/09 01:41:20;;;;;;;0.25;0.17;;;;;;;;;;5053104;28;20029;-67
2021/10/09 01:43:45;;;;;;;0.70;0.35;;;;;;;;;;5052910;28;20021;-67
2021/10/09 01:46:11;;;;;;;0.85;0.20;;;;;;;;;;5053585;28;20104;-66
2021/10/09 01:48:45;;;;;;;0.15;0.15;;;;;;;;;;5053450;28;20032;-68
2021/10/09 01:51:11;;;;;;;0.40;0.10;;;;;;;;;;5053143;28;20024;-67
2021/10/09 01:53:36;;;;;;;1.38;0.50;;;;;;;;;;5053432;28;20040;-67
2021/10/09 01:56:02;;;;;;;0.43;0.30;;;;;;;;;;5053559;28;20021;-67
2021/10/09 01:58:28;;;;;;;0.25;0.20;;;;;;;;;;5052887;28;20028;-66
2021/10/09 02:00:53;;;;;;;0.90;0.13;;;;;;;;;;5047631;23;20435;-67
2021/10/09 02:03:21;;;;;;;0.43;0.17;;;;;;;;;;5032983;28;20046;-67
2021/10/09 02:05:46;;;;;;;0.65;0.20;;;;;;;;;;5033512;28;20057;-68
2021/10/09 02:08:12;;;;;;;0.43;0.10;;;;;;;;;;5033174;28;20365;-67
2021/10/09 02:10:47;;;;;;;0.52;0.30;;;;;;;;;;5033429;28;20483;-67
2021/10/09 02:13:15;;;;;;;1.08;0.30;;;;;;;;;;5033351;28;20049;-67
2021/10/09 02:15:57;;;;;;;0.85;0.20;;;;;;;;;;5033428;28;20060;-67
2021/10/09 02:26:17;;;;;;;1.43;0.10;;;;;;;;;;5033443;28;20020;-67
2021/10/09 02:28:42;;;;;;;0.30;0.22;;;;;;;;;;5033103;28;20246;-67
2021/10/09 02:31:07;;;;;;;0.90;0.20;;;;;;;;;;5033114;28;20014;-67
2021/10/09 02:33:32;;;;;;;0.38;0.20;;;;;;;;;;5033071;28;20033;-67
2021/10/09 02:35:58;;;;;;;0.38;0.20;;;;;;;;;;5033151;28;20017;-68
2021/10/09 02:38:23;;;;;;;0.20;0.10;;;;;;;;;;5032739;28;20037;-67
2021/10/09 02:40:48;;;;;;;0.93;0.20;;;;;;;;;;5032812;28;20458;-67
2021/10/09 02:43:13;;;;;;;0.15;0.10;;;;;;;;;;5032619;28;20461;-67
2021/10/09 02:45:39;;;;;;;1.25;0.10;;;;;;;;;;5033078;28;20009;-68
2021/10/09 02:48:05;;;;;;;0.40;0.30;;;;;;;;;;5033033;28;20022;-68
2021/10/09 02:50:31;;;;;;;0.35;0.10;;;;;;;;;;5032956;28;20020;-67
2021/10/09 02:52:57;;;;;;;0.77;0.32;;;;;;;;;;5032702;28;20028;-68
2021/10/09 02:55:22;;;;;;;0.93;0.15;;;;;;;;;;5033277;28;20021;-67
2021/10/09 02:57:48;;;;;;;0.10;0.10;;;;;;;;;;5036690;28;20018;-68
2021/10/09 03:00:14;;;;;;;0.28;0.10;;;;;;;;;;5036599;28;20076;-69
2021/10/09 03:02:39;;;;;;;0.43;0.13;;;;;;;;;;5036373;28;20453;-67
2021/10/09 03:05:04;;;;;;;0.17;0.10;;;;;;;;;;5036818;28;20097;-68
2021/10/09 03:07:30;;;;;;;0.20;0.20;;;;;;;;;;5036406;28;20028;-68
2021/10/09 03:09:55;;;;;;;1.08;0.10;;;;;;;;;;5036650;28;20018;-68
2021/10/09 03:12:20;;;;;;;1.50;0.20;;;;;;;;;;5036287;28;20494;-68
2021/10/09 03:14:45;;;;;;;0.53;0.20;;;;;;;;;;5036404;28;20029;-68
2021/10/09 03:17:12;;;;;;;1.17;0.20;;;;;;;;;;5036262;28;20805;-67
2021/10/09 03:19:37;;;;;;;0.20;0.20;;;;;;;;;;5036406;28;20024;-68
2021/10/09 03:22:04;;;;;;;0.43;0.22;;;;;;;;;;5036390;28;20021;-68
2021/10/09 03:24:29;;;;;;;0.32;0.20;;;;;;;;;;5036325;28;20021;-68
2021/10/09 03:26:55;;;;;;;0.20;0.20;;;;;;;;;;5036139;28;20108;-68
2021/10/09 03:29:20;;;;;;;0.30;0.30;;;;;;;;;;5036008;28;20048;-68
2021/10/09 03:31:46;;;;;;;1.08;0.20;;;;;;;;;;5036065;28;20490;-69
2021/10/09 03:34:11;;;;;;;0.10;0.10;;;;;;;;;;5035992;28;20017;-68
2021/10/09 03:36:37;;;;;;;0.60;0.30;;;;;;;;;;5035858;28;20027;-68
2021/10/09 03:39:06;;;;;;;1.65;0.20;;;;;;;;;;5036114;28;20734;-68
2021/10/09 03:41:32;;;;;;;1.45;0.22;;;;;;;;;;5035842;28;20028;-68
2021/10/09 03:43:57;;;;;;;0.77;0.32;;;;;;;;;;5035955;28;20025;-68
2021/10/09 03:46:27;;;;;;;1.40;0.35;;;;;;;;;;5035685;28;20064;-68
2021/10/09 03:54:05;;;;;;;0.28;0.10;;;;;;;;;;5035888;28;20028;-67
2021/10/09 03:56:30;;;;;;;0.20;0.10;;;;;;;;;;5035445;28;20096;-69
2021/10/09 03:58:56;;;;;;;0.33;0.10;;;;;;;;;;5035683;28;20029;-68
2021/10/09 04:01:21;;;;;;;0.52;0.20;;;;;;;;;;5035293;28;20779;-68
2021/10/09 04:03:47;;;;;;;0.65;0.28;;;;;;;;;;5035646;28;20376;-68
2021/10/09 04:06:13;;;;;;;1.05;0.20;;;;;;;;;;5034828;28;20026;-67
2021/10/09 04:08:38;;;;;;;0.65;0.10;;;;;;;;;;5035354;28;20036;-68
2021/10/09 04:11:04;;;;;;;0.63;0.10;;;;;;;;;;5035301;28;20468;-68
2021/10/09 04:13:29;;;;;;;0.95;0.10;;;;;;;;;;5035152;28;20025;-68
2021/10/09 04:15:54;;;;;;;1.80;0.40;;;;;;;;;;5034980;28;20025;-68
2021/10/09 04:18:19;;;;;;;0.33;0.20;;;;;;;;;;5035322;28;20594;-68
2021/10/09 04:20:44;;;;;;;0.73;0.20;;;;;;;;;;5035139;28;20259;-68
2021/10/09 04:23:10;;;;;;;0.85;0.10;;;;;;;;;;5035165;28;20032;-68
2021/10/09 04:25:35;;;;;;;0.22;0.17;;;;;;;;;;5035152;28;20527;-68
2021/10/09 04:28:00;;;;;;;0.10;0.10;;;;;;;;;;5035038;28;20021;-68
2021/10/09 04:30:25;;;;;;;0.10;0.10;;;;;;;;;;5034743;28;20478;-67
2021/10/09 04:32:51;;;;;;;0.60;0.28;;;;;;;;;;5035159;28;20026;-67
2021/10/09 04:35:17;;;;;;;0.63;0.30;;;;;;;;;;5034938;28;20022;-68
2021/10/09 04:37:42;;;;;;;0.60;0.30;;;;;;;;;;5033816;28;20028;-68
2021/10/09 04:40:08;;;;;;;0.22;0.13;;;;;;;;;;5034885;28;20021;-68
2021/10/09 04:42:34;;;;;;;0.40;0.10;;;;;;;;;;5034696;28;20064;-68
2021/10/09 04:44:59;;;;;;;1.65;0.30;;;;;;;;;;5034576;28;20017;-68
2021/10/09 04:47:24;;;;;;;0.85;0.10;;;;;;;;;;5034460;28;20063;-67
2021/10/09 04:49:50;;;;;;;0.40;0.20;;;;;;;;;;5034696;28;20017;-69
2021/10/09 04:52:15;;;;;;;0.50;0.10;;;;;;;;;;5034599;28;20056;-68
2021/10/09 04:54:42;;;;;;;0.57;0.15;;;;;;;;;;5034513;28;20040;-68
2021/10/09 04:57:07;;;;;;;0.85;0.17;;;;;;;;;;5034397;28;20021;-68
2021/10/09 04:59:32;;;;;;;0.27;0.20;;;;;;;;;;5033877;28;20369;-68
2021/10/09 05:01:57;;;;;;;0.87;0.33;;;;;;;;;;5034505;28;20313;-68
2021/10/09 05:04:22;;;;;;;1.15;0.08;;;;;;;;;;5034114;28;20044;-69
2021/10/09 05:06:48;;;;;;;0.30;0.20;;;;;;;;;;5034471;28;20420;-68
2021/10/09 05:09:13;;;;;;;0.50;0.20;;;;;;;;;;5034079;28;20017;-67
2021/10/09 05:11:38;;;;;;;0.13;0.10;;;;;;;;;;5034264;28;20025;-68
2021/10/09 05:14:03;;;;;;;1.23;0.30;;;;;;;;;;5034374;28;20483;-68
2021/10/09 05:16:29;;;;;;;0.20;0.20;;;;;;;;;;5034130;28;20068;-68
2021/10/09 05:18:54;;;;;;;1.00;0.22;;;;;;;;;;5033324;28;20021;-68
2021/10/09 05:21:19;;;;;;;0.55;0.10;;;;;;;;;;5032495;28;20014;-68
2021/10/09 05:23:44;;;;;;;1.13;0.10;;;;;;;;;;5033957;28;20100;-67
2021/10/09 05:26:10;;;;;;;1.00;0.28;;;;;;;;;;5034006;28;20036;-68
2021/10/09 05:28:44;;;;;;;0.90;0.20;;;;;;;;;;5033955;28;20021;-68
2021/10/09 05:31:18;;;;;;;0.25;0.10;;;;;;;;;;5033661;28;20017;-68
2021/10/09 05:33:43;;;;;;;0.03;0.03;;;;;;;;;;5034079;28;20025;-68
2021/10/09 05:36:08;;;;;;;0.52;0.10;;;;;;;;;;5033792;28;20068;-67
2021/10/09 05:38:39;;;;;;;2.00;0.20;;;;;;;;;;5033823;28;20025;-69
2021/10/09 05:41:05;;;;;;;0.10;0.10;;;;;;;;;;5032611;28;20067;-68
2021/10/09 05:43:31;;;;;;;0.20;0.20;;;;;;;;;;5033614;28;20483;-68
2021/10/09 05:45:56;;;;;;;0.00;0.00;;;;;;;;;;5032358;28;20028;-68
2021/10/09 05:48:22;;;;;;;0.40;0.10;;;;;;;;;;5033617;28;20025;-67
2021/10/09 05:51:04;;;;;;;0.00;0.00;;;;;;;;;;5032429;28;20456;-68
2021/10/09 05:53:53;;;;;;;0.55;0.10;;;;;;;;;;5033616;28;20452;-68
2021/10/09 06:25:21;;;;;;;0.10;0.10;;;;;;;;;;5033499;28;20488;-67
2021/10/09 06:32:01;;;;;;;0.20;0.20;;;;;;;;;;5036871;28;20063;-69
2021/10/09 06:47:49;;;;;;;0.40;0.10;;;;;;;;;;5037232;28;20025;-68
2021/10/09 07:01:07;;;;;;;0.55;0.10;;;;;;;;;;5036325;28;20090;-69
2021/10/09 07:03:32;;;;;;;0.15;0.05;;;;;;;;;;5036556;28;20028;-68
2021/10/09 07:05:58;;;;;;;0.22;0.03;;;;;;;;;;5036512;28;20021;-68
2021/10/09 07:08:23;;;;;;;0.08;0.08;;;;;;;;;;5035114;28;20017;-68
2021/10/09 07:10:50;;;;;;;0.85;0.10;;;;;;;;;;5036431;28;20024;-68
2021/10/09 07:13:16;;;;;;;0.30;0.08;;;;;;;;;;5036380;28;20108;-68
2021/10/09 07:15:41;;;;;;;0.28;0.10;;;;;;;;;;5036539;28;20476;-69
2021/10/09 07:18:13;;;;;;;0.22;0.10;;;;;;;;;;5036270;28;20067;-69
2021/10/09 07:20:40;;;;;;;0.20;0.20;;;;;;;;;;5036166;28;20029;-68
2021/10/09 07:23:07;;;;;;;0.40;0.10;;;;;;;;;;5034870;28;20565;-68
2021/10/09 07:25:32;;;;;;;0.30;0.10;;;;;;;;;;5036310;28;20040;-69
2021/10/09 07:27:58;;;;;;;0.10;0.10;;;;;;;;;;5036364;28;20377;-69
2021/10/09 07:30:23;;;;;;;0.00;0.00;;;;;;;;;;5035829;28;20037;-68
2021/10/09 07:32:49;;;;;;;0.57;0.00;;;;;;;;;;5036274;28;20022;-69
2021/10/09 07:35:14;;;;;;;0.30;0.00;;;;;;;;;;5036104;28;20047;-68
2021/10/09 07:37:40;;;;;;;0.10;0.10;;;;;;;;;;5035923;28;20722;-68
2021/10/09 07:40:06;;;;;;;0.47;0.15;;;;;;;;;;5036034;28;20064;-69
2021/10/09 07:42:31;;;;;;;1.00;0.52;;;;;;;;;;5034832;28;20075;-69
2021/10/09 07:44:56;;;;;;;0.57;0.10;;;;;;;;;;5035950;28;20029;-68
2021/10/09 07:47:21;;;;;;;0.05;0.05;;;;;;;;;;5035672;28;20460;-68
2021/10/09 07:49:46;;;;;;;0.43;0.10;;;;;;;;;;5035810;28;20476;-68
2021/10/09 07:52:12;;;;;;;0.65;0.15;;;;;;;;;;5035518;28;20021;-69
2021/10/09 07:54:38;;;;;;;0.10;0.10;;;;;;;;;;5035772;28;20100;-69
2021/10/09 07:57:04;;;;;;;0.65;0.10;;;;;;;;;;5035574;28;20464;-68
2021/10/09 07:59:29;;;;;;;0.10;0.10;;;;;;;;;;5034120;28;20072;-69
2021/10/09 08:01:54;;;;;;;0.40;0.10;;;;;;;;;;5035751;28;20064;-69
2021/10/09 08:04:19;;;;;;;0.40;0.30;;;;;;;;;;5035447;28;20056;-68
2021/10/09 08:06:46;;;;;;;1.10;0.10;;;;;;;;;;5035561;28;20026;-69
2021/10/09 08:09:12;;;;;;;0.73;0.20;;;;;;;;;;5035374;28;20024;-69
2021/10/09 08:11:37;;;;;;;0.43;0.10;;;;;;;;;;5035296;28;20108;-68
2021/10/09 08:14:03;;;;;;;0.32;0.10;;;;;;;;;;5035565;28;20014;-68
2021/10/09 08:16:29;;;;;;;0.20;0.10;;;;;;;;;;5033979;28;20361;-69
2021/10/09 08:18:57;;;;;;;0.20;0.10;;;;;;;;;;5035253;28;20029;-69
2021/10/09 08:21:25;;;;;;;0.15;0.10;;;;;;;;;;5034990;28;20484;-68
2021/10/09 08:26:42;;;;;;;0.10;0.10;;;;;;;;;;5035197;28;20512;-68
2021/10/09 08:40:15;;;;;;;0.20;0.20;;;;;;;;;;5012786;28;20374;-68
2021/10/09 08:42:41;;;;;;;0.75;0.25;;;;;;;;;;5012744;28;20034;-69
2021/10/09 08:45:07;;;;;;;0.43;0.10;;;;;;;;;;5012671;28;20064;-69
2021/10/09 08:47:34;;;;;;;0.32;0.10;;;;;;;;;;5012679;28;20033;-69
2021/10/09 08:50:00;;;;;;;1.05;0.43;;;;;;;;;;5012748;28;20449;-70
2021/10/09 08:52:26;;;;;;;0.55;0.10;;;;;;;;;;5012352;28;20037;-68
2021/10/09 08:54:52;;;;;;;0.00;0.00;;;;;;;;;;5012798;28;20026;-68
2021/10/09 08:57:20;;;;;;;2.10;0.40;;;;;;;;;;5012542;28;20113;-69
2021/10/09 08:59:48;;;;;;;0.10;0.10;;;;;;;;;;5011941;28;20457;-69
2021/10/09 09:05:12;;;;;;;;;;;;;;;;;;5012793;28;20014;-68
2021/10/09 09:27:11;;;;;;;0.43;0.28;;;;;;;;;;5034167;28;20027;-68
2021/10/09 09:40:08;;;;;;;0.32;0.20;;;;;;;;;;5034102;28;20025;-68
2021/10/09 09:42:41;;;;;;;0.13;0.10;;;;;;;;;;5033513;28;20021;-69
2021/10/09 09:45:10;;;;;;;0.10;0.10;;;;;;;;;;5033713;28;20009;-68
2021/10/09 09:47:42;;;;;;;0.10;0.08;;;;;;;;;;5033746;28;20021;-68
2021/10/09 09:50:08;;;;;;;0.00;0.00;;;;;;;;;;5033492;28;20459;-69
2021/10/09 09:52:37;;;;;;;1.08;0.20;;;;;;;;;;5033491;28;20029;-69
2021/10/09 09:55:03;;;;;;;0.10;0.03;;;;;;;;;;5033610;28;20067;-69
2021/10/09 09:57:29;;;;;;;0.55;0.30;;;;;;;;;;5033104;28;20033;-68
2021/10/09 09:59:55;;;;;;;0.30;0.20;;;;;;;;;;5033244;28;20034;-69
2021/10/09 10:02:21;;;;;;;0.00;0.00;;;;;;;;;;5033319;28;20504;-69
2021/10/09 10:04:46;;;;;;;0.20;0.10;;;;;;;;;;5032522;28;20017;-69
2021/10/09 10:07:12;;;;;;;0.30;0.28;;;;;;;;;;5033528;28;20017;-68
2021/10/09 10:09:38;;;;;;;0.20;0.10;;;;;;;;;;5032098;28;20017;-68
2021/10/09 10:12:06;;;;;;;0.80;0.20;;;;;;;;;;5033361;28;20022;-68
2021/10/09 10:14:33;;;;;;;0.10;0.10;;;;;;;;;;5033230;28;20018;-69
2021/10/09 10:16:59;;;;;;;0.28;0.20;;;;;;;;;;5033118;28;20037;-68
2021/10/09 10:19:43;;;;;;;0.30;0.13;;;;;;;;;;5033031;28;20021;-68
2021/10/09 10:22:08;;;;;;;0.20;0.00;;;;;;;;;;5031695;28;20022;-69
2021/10/09 10:24:48;;;;;;;0.28;0.10;;;;;;;;;;5033144;28;20040;-69
2021/10/09 10:27:49;;;;;;;0.13;0.10;;;;;;;;;;5032963;28;20583;-69
2021/10/09 10:30:14;;;;;;;0.52;0.10;;;;;;;;;;4952659;29;20106;-68
2021/10/09 10:33:00;;;;;;;0.30;0.30;;;;;;;;;;4952869;29;20118;-69
2021/10/09 10:35:34;;;;;;;0.10;0.10;;;;;;;;;;4914508;29;20036;-69
2021/10/09 10:38:32;;;;;;;0.55;0.28;;;;;;;;;;4914816;29;20060;-68
2021/10/09 10:40:59;;;;;;;0.55;0.10;;;;;;;;;;4914661;29;20032;-69
2021/10/09 10:43:40;;;;;;;0.95;0.10;;;;;;;;;;4914327;29;20093;-69
2021/10/09 10:46:29;;;;;;;0.20;0.10;;;;;;;;;;4914584;29;20028;-68
2021/10/09 10:57:11;;;;;;;0.32;0.20;;;;;;;;;;4895725;29;20032;-69
2021/10/09 11:02:13;;;;;;;0.13;0.10;;;;;;;;;;4895749;29;20040;-68
2021/10/09 11:04:40;;;;;;;0.10;0.10;;;;;;;;;;4908163;29;20063;-69
2021/10/09 11:07:06;;;;;;;0.10;0.10;;;;;;;;;;4914632;29;20028;-69
2021/10/09 11:09:33;;;;;;;0.17;0.10;;;;;;;;;;4914583;29;20456;-69
2021/10/09 11:11:58;;;;;;;0.43;0.10;;;;;;;;;;4924545;29;20027;-68
2021/10/09 11:14:27;;;;;;;0.20;0.10;;;;;;;;;;4952240;29;20110;-69
2021/10/09 11:17:02;;;;;;;1.55;0.30;;;;;;;;;;4954507;28;20027;-68
2021/10/09 11:19:46;;;;;;;0.65;0.20;;;;;;;;;;4955903;29;20111;-69
2021/10/09 11:22:12;;;;;;;0.30;0.10;;;;;;;;;;4955831;29;20123;-69
2021/10/09 11:24:38;;;;;;;0.20;0.10;;;;;;;;;;4955939;29;20449;-68
2021/10/09 11:27:03;;;;;;;0.20;0.10;;;;;;;;;;4956198;29;20582;-69
2021/10/09 11:29:28;;;;;;;0.75;0.10;;;;;;;;;;4956035;29;20030;-69
2021/10/09 11:31:59;;;;;;;0.75;0.17;;;;;;;;;;4998115;28;20469;-68
2021/10/09 11:34:25;;;;;;;0.32;0.10;;;;;;;;;;5016302;28;20049;-69
2021/10/09 11:36:52;;;;;;;0.00;0.00;;;;;;;;;;5018371;28;20044;-68
2021/10/09 11:39:21;;;;;;;0.28;0.17;;;;;;;;;;5035843;28;20756;-68
2021/10/09 11:42:10;;;;;;;0.93;0.17;;;;;;;;;;5035863;28;20018;-69
2021/10/09 11:44:40;;;;;;;0.20;0.20;;;;;;;;;;5035957;28;20045;-68
2021/10/09 11:55:22;;;;;;;0.32;0.10;;;;;;;;;;5035862;28;20031;-68
2021/10/09 11:57:48;;;;;;;0.28;0.10;;;;;;;;;;5035664;28;20029;-69
2021/10/09 12:00:28;;;;;;;1.02;0.10;;;;;;;;;;5035121;28;20046;-68
2021/10/09 12:02:55;;;;;;;0.32;0.20;;;;;;;;;;5035418;28;20052;-68
2021/10/09 12:05:20;;;;;;;0.85;0.10;;;;;;;;;;5035318;28;20018;-68
2021/10/09 12:08:04;;;;;;;0.90;0.10;;;;;;;;;;5035226;28;20039;-69
2021/10/09 12:10:30;;;;;;;0.15;0.10;;;;;;;;;;5034661;28;20147;-68
2021/10/09 12:13:04;;;;;;;0.17;0.17;;;;;;;;;;5035425;28;20068;-68
2021/10/09 12:15:30;;;;;;;0.20;0.15;;;;;;;;;;5035308;28;20140;-68
2021/10/09 12:17:58;;;;;;;0.17;0.10;;;;;;;;;;5035431;28;20515;-68
2021/10/09 12:20:25;;;;;;;0.25;0.10;;;;;;;;;;5033965;28;20029;-69
2021/10/09 12:22:55;;;;;;;0.70;0.22;;;;;;;;;;5034036;28;20111;-68
2021/10/09 12:25:26;;;;;;;0.75;0.10;;;;;;;;;;5034765;28;20092;-68
2021/10/09 12:28:02;;;;;;;0.20;0.10;;;;;;;;;;5034522;28;20567;-69
2021/10/09 12:30:40;;;;;;;0.10;0.10;;;;;;;;;;5034847;28;20025;-68
2021/10/09 12:33:06;;;;;;;2.10;0.28;;;;;;;;;;5035201;28;20017;-68
2021/10/09 12:35:35;;;;;;;0.35;0.28;;;;;;;;;;5034921;28;20653;-68
2021/10/09 12:38:10;;;;;;;0.10;0.10;;;;;;;;;;5034475;28;20026;-68
2021/10/09 12:40:36;;;;;;;0.40;0.20;;;;;;;;;;5034954;28;20024;-69
2021/10/09 12:43:01;;;;;;;0.35;0.20;;;;;;;;;;5033452;28;20025;-69
2021/10/09 12:45:27;;;;;;;0.63;0.10;;;;;;;;;;5034358;28;20101;-68
2021/10/09 12:47:55;;;;;;;0.25;0.10;;;;;;;;;;5034754;28;20041;-68
2021/10/09 12:50:20;;;;;;;0.77;0.10;;;;;;;;;;5034502;28;20021;-68
2021/10/09 12:52:46;;;;;;;0.30;0.15;;;;;;;;;;5034492;28;20017;-68
2021/10/09 12:55:13;;;;;;;0.65;0.10;;;;;;;;;;5033096;28;20018;-69
2021/10/09 12:57:49;;;;;;;0.08;0.08;;;;;;;;;;5034500;28;20075;-68
2021/10/09 13:00:15;;;;;;;0.50;0.30;;;;;;;;;;5034103;28;20037;-69
2021/10/09 13:02:40;;;;;;;0.20;0.20;;;;;;;;;;5034180;28;20432;-68
2021/10/09 13:05:06;;;;;;;0.20;0.00;;;;;;;;;;5034096;28;20100;-68
2021/10/09 13:07:32;;;;;;;0.03;0.03;;;;;;;;;;5034271;28;20026;-69
2021/10/09 13:09:57;;;;;;;0.57;0.20;;;;;;;;;;5034240;28;20576;-68
2021/10/09 13:12:22;;;;;;;0.17;0.10;;;;;;;;;;5034031;28;20052;-68
2021/10/09 13:14:48;;;;;;;0.52;0.13;;;;;;;;;;5034123;28;20061;-69
2021/10/09 13:17:13;;;;;;;0.38;0.10;;;;;;;;;;5034066;28;20030;-68
2021/10/09 13:19:38;;;;;;;0.30;0.28;;;;;;;;;;5033932;28;20032;-68
2021/10/09 13:22:04;;;;;;;0.43;0.30;;;;;;;;;;5034109;28;20025;-69
2021/10/09 13:24:30;;;;;;;0.10;0.10;;;;;;;;;;5033931;28;20373;-68
2021/10/09 13:26:55;;;;;;;0.22;0.15;;;;;;;;;;5033008;28;20022;-68
2021/10/09 13:29:20;;;;;;;0.10;0.10;;;;;;;;;;5033683;28;20018;-69
2021/10/09 13:31:45;;;;;;;0.47;0.10;;;;;;;;;;5034032;28;20309;-68
2021/10/09 13:34:11;;;;;;;0.10;0.10;;;;;;;;;;5033891;28;20053;-68
2021/10/09 13:36:37;;;;;;;1.08;0.10;;;;;;;;;;5033536;28;20045;-69
2021/10/09 13:39:02;;;;;;;0.30;0.10;;;;;;;;;;5033309;28;20025;-68
2021/10/09 13:41:27;;;;;;;0.10;0.10;;;;;;;;;;5033236;28;20041;-68
2021/10/09 13:43:52;;;;;;;0.35;0.30;;;;;;;;;;5033698;28;20394;-69
2021/10/09 13:46:19;;;;;;;0.88;0.10;;;;;;;;;;5033525;28;20030;-68
2021/10/09 13:48:45;;;;;;;0.20;0.10;;;;;;;;;;5033548;28;20021;-68
2021/10/09 13:51:13;;;;;;;0.20;0.10;;;;;;;;;;5033444;28;20453;-68
2021/10/09 13:53:42;;;;;;;0.70;0.30;;;;;;;;;;5033539;28;20017;-68
2021/10/09 13:56:07;;;;;;;0.28;0.15;;;;;;;;;;5033300;28;20032;-69
2021/10/09 13:58:34;;;;;;;0.15;0.10;;;;;;;;;;5033458;28;20017;-68
2021/10/09 14:00:59;;;;;;;0.73;0.30;;;;;;;;;;5033184;28;20120;-67
2021/10/09 14:03:25;;;;;;;0.10;0.10;;;;;;;;;;5033248;28;20152;-68
2021/10/09 14:05:52;;;;;;;0.20;0.20;;;;;;;;;;5033508;28;20018;-68
2021/10/09 14:08:18;;;;;;;0.25;0.10;;;;;;;;;;5033108;28;20017;-70
2021/10/09 14:10:43;;;;;;;0.20;0.10;;;;;;;;;;5032076;28;20014;-69
2021/10/09 14:13:11;;;;;;;0.95;0.13;;;;;;;;;;5031844;28;20474;-68
2021/10/09 14:15:36;;;;;;;0.15;0.10;;;;;;;;;;5031211;28;20033;-68
2021/10/09 14:18:01;;;;;;;1.65;0.10;;;;;;;;;;5031917;28;20024;-68
2021/10/09 14:20:27;;;;;;;0.20;0.10;;;;;;;;;;5032629;28;20035;-69
2021/10/09 14:22:52;;;;;;;0.32;0.10;;;;;;;;;;5033130;28;20021;-68
2021/10/09 14:25:17;;;;;;;0.10;0.10;;;;;;;;;;5032418;28;20026;-69
2021/10/09 14:27:44;;;;;;;0.30;0.10;;;;;;;;;;5033219;28;20017;-69
2021/10/09 14:30:09;;;;;;;0.25;0.10;;;;;;;;;;5032669;28;20028;-68
2021/10/09 14:32:35;;;;;;;0.50;0.10;;;;;;;;;;5033074;28;20018;-68
2021/10/09 14:35:01;;;;;;;0.10;0.10;;;;;;;;;;5033124;28;20045;-68
2021/10/09 14:37:26;;;;;;;0.20;0.20;;;;;;;;;;5032855;28;20058;-68
2021/10/09 14:39:52;;;;;;;0.30;0.20;;;;;;;;;;5033129;28;20028;-69
2021/10/09 14:42:17;;;;;;;0.20;0.20;;;;;;;;;;5032764;28;20025;-68
2021/10/09 14:44:44;;;;;;;0.43;0.10;;;;;;;;;;5032633;28;20430;-68
2021/10/09 15:16:23;;;;;;;0.20;0.20;;;;;;;;;;4975106;28;20025;-69
2021/10/09 15:18:48;;;;;;;0.55;0.20;;;;;;;;;;4975302;28;20047;-68
2021/10/09 15:21:13;;;;;;;0.43;0.10;;;;;;;;;;4975371;28;20063;-68
2021/10/09 15:23:39;;;;;;;0.10;0.10;;;;;;;;;;4975194;28;20138;-68
2021/10/09 15:26:05;;;;;;;0.75;0.28;;;;;;;;;;4981209;28;20026;-68
2021/10/09 15:28:30;;;;;;;0.10;0.10;;;;;;;;;;5036235;28;20017;-68
2021/10/09 15:30:55;;;;;;;1.60;0.30;;;;;;;;;;5036139;28;20029;-68
2021/10/09 15:33:21;;;;;;;0.17;0.10;;;;;;;;;;5036073;28;20053;-68
2021/10/09 15:35:48;;;;;;;0.85;0.28;;;;;;;;;;5035946;28;20056;-68
2021/10/09 15:38:13;;;;;;;0.10;0.10;;;;;;;;;;5035724;28;20377;-68
2021/10/09 15:40:38;;;;;;;0.73;0.10;;;;;;;;;;5036056;28;20022;-69
2021/10/09 15:43:04;;;;;;;0.40;0.30;;;;;;;;;;5034617;28;20036;-69
2021/10/09 15:45:29;;;;;;;0.10;0.10;;;;;;;;;;5035853;28;20018;-69
2021/10/09 15:47:56;;;;;;;0.40;0.15;;;;;;;;;;5035955;28;20017;-68
2021/10/09 15:50:22;;;;;;;1.23;0.10;;;;;;;;;;5035769;28;20096;-69
2021/10/09 15:52:48;;;;;;;0.15;0.03;;;;;;;;;;5035846;28;20063;-68
2021/10/09 15:55:14;;;;;;;0.68;0.08;;;;;;;;;;5035574;28;20013;-68
2021/10/09 15:57:40;;;;;;;0.17;0.15;;;;;;;;;;5035601;28;20059;-68
2021/10/09 16:00:06;;;;;;;0.85;0.17;;;;;;;;;;5035352;28;20053;-68
2021/10/09 16:02:31;;;;;;;0.10;0.10;;;;;;;;;;5034617;28;20100;-69
2021/10/09 16:04:57;;;;;;;1.07;0.20;;;;;;;;;;5035533;28;20545;-69
2021/10/09 16:07:22;;;;;;;0.32;0.15;;;;;;;;;;5035438;28;20698;-68
2021/10/09 16:09:48;;;;;;;0.10;0.10;;;;;;;;;;5035550;28;20067;-68
2021/10/09 16:12:13;;;;;;;0.30;0.30;;;;;;;;;;5035258;28;20064;-69
2021/10/09 16:14:40;;;;;;;0.15;0.10;;;;;;;;;;5035506;28;20080;-69
2021/10/09 16:17:18;;;;;;;0.35;0.20;;;;;;;;;;5035070;28;20018;-69
2021/10/09 16:19:43;;;;;;;0.00;0.00;;;;;;;;;;5035313;28;20021;-69
2021/10/09 16:22:08;;;;;;;1.05;0.25;;;;;;;;;;5035071;28;20020;-68
2021/10/09 16:24:34;;;;;;;1.10;0.20;;;;;;;;;;5035049;28;20036;-69
2021/10/09 16:26:59;;;;;;;0.77;0.30;;;;;;;;;;5035310;28;20022;-69
2021/10/09 16:29:24;;;;;;;0.85;0.20;;;;;;;;;;5035100;28;20097;-68
2021/10/09 16:31:50;;;;;;;0.20;0.10;;;;;;;;;;5033993;28;20511;-68
2021/10/09 16:34:15;;;;;;;0.15;0.10;;;;;;;;;;5034637;28;20262;-68
2021/10/09 16:36:42;;;;;;;1.48;0.32;;;;;;;;;;5035035;28;20028;-69
2021/10/09 16:39:07;;;;;;;0.35;0.10;;;;;;;;;;5035038;28;20025;-69
2021/10/09 16:41:33;;;;;;;3.03;0.55;;;;;;;;;;5034772;28;20124;-68
2021/10/09 16:43:58;;;;;;;0.30;0.10;;;;;;;;;;5034821;28;20103;-68
2021/10/09 16:46:24;;;;;;;0.35;0.30;;;;;;;;;;5034607;28;20018;-68
2021/10/09 16:48:49;;;;;;;0.40;0.10;;;;;;;;;;5034660;28;20368;-69
2021/10/09 16:51:14;;;;;;;0.73;0.20;;;;;;;;;;5033331;28;20032;-68
2021/10/09 16:53:42;;;;;;;0.22;0.13;;;;;;;;;;5034635;28;20120;-69
2021/10/09 16:56:07;;;;;;;0.35;0.25;;;;;;;;;;5034675;28;20468;-68
2021/10/09 16:58:32;;;;;;;0.30;0.20;;;;;;;;;;5034461;28;20021;-68
2021/10/09 17:00:58;;;;;;;0.15;0.15;;;;;;;;;;5034493;28;20029;-68
2021/10/09 17:03:23;;;;;;;0.38;0.30;;;;;;;;;;5034399;28;20030;-69
2021/10/09 17:05:50;;;;;;;0.20;0.20;;;;;;;;;;5034325;28;20025;-68
2021/10/09 17:08:15;;;;;;;1.00;0.20;;;;;;;;;;5033111;28;20017;-68
2021/10/09 17:10:40;;;;;;;0.10;0.10;;;;;;;;;;5034098;28;20063;-68
2021/10/09 17:13:06;;;;;;;0.30;0.20;;;;;;;;;;5034355;28;20018;-68
2021/10/09 17:15:31;;;;;;;0.52;0.30;;;;;;;;;;5033962;28;20460;-68
2021/10/09 17:17:57;;;;;;;0.50;0.20;;;;;;;;;;5034257;28;20048;-69
2021/10/09 17:20:22;;;;;;;0.22;0.20;;;;;;;;;;5033997;28;20078;-68
2021/10/09 17:22:47;;;;;;;0.95;0.30;;;;;;;;;;5034070;28;20025;-68
2021/10/09 17:25:12;;;;;;;0.57;0.20;;;;;;;;;;5032859;28;20420;-68
2021/10/09 17:27:37;;;;;;;0.00;0.00;;;;;;;;;;5033967;28;20444;-68